createdAt,value
2023-04-10T00:01:17.574Z,8.40
2023-04-10T00:06:20.490Z,10.50
2023-04-10T00:11:23.245Z,9.50
2023-04-10T00:16:25.969Z,8.50
2023-04-10T00:21:28.638Z,9.70
2023-04-10T00:26:31.412Z,8.70
2023-04-10T00:31:34.219Z,11.10
2023-04-10T00:36:36.943Z,9.50
2023-04-10T00:41:39.649Z,10.80
2023-04-10T00:46:42.472Z,11.70
2023-04-10T00:51:45.294Z,10.60
2023-04-10T00:56:48.255Z,12.10
2023-04-10T01:01:51.265Z,11.50
2023-04-10T01:07:07.633Z,8.50
2023-04-10T01:12:35.750Z,9.70
2023-04-10T01:18:02.105Z,13.00
2023-04-10T01:23:19.811Z,15.60
2023-04-10T01:28:57.263Z,13.70
2023-04-10T01:34:15.683Z,14.20
2023-04-10T01:39:20.919Z,11.00
2023-04-10T01:44:27.531Z,9.50
2023-04-10T01:49:32.321Z,8.70
2023-04-10T01:54:35.712Z,12.00
2023-04-10T01:59:39.314Z,12.10
2023-04-10T02:04:42.021Z,11.90
2023-04-10T02:09:58.950Z,12.10
2023-04-10T02:15:05.253Z,8.00
2023-04-10T02:20:09.644Z,9.70
2023-04-10T02:25:12.418Z,9.50
2023-04-10T02:30:15.087Z,13.10
2023-04-10T02:35:18.041Z,12.40
2023-04-10T02:40:20.933Z,9.90
2023-04-10T02:45:23.609Z,14.80
2023-04-10T02:50:29.692Z,7.20
2023-04-10T02:55:32.452Z,11.70
2023-04-10T03:00:35.142Z,10.80
2023-04-10T03:05:37.793Z,10.80
2023-04-10T03:10:42.903Z,9.90
2023-04-10T03:15:45.669Z,11.00
2023-04-10T03:20:48.958Z,10.00
2023-04-10T03:25:53.984Z,12.80
2023-04-10T03:30:57.172Z,11.60
2023-04-10T03:35:59.877Z,9.40
2023-04-10T03:41:02.617Z,11.30
2023-04-10T03:46:05.787Z,10.90
2023-04-10T03:51:08.466Z,9.50
2023-04-10T03:56:11.125Z,12.10
2023-04-10T04:01:14.037Z,12.70
2023-04-10T04:06:16.728Z,10.60
2023-04-10T04:11:19.413Z,12.20
2023-04-10T04:16:22.248Z,14.60
2023-04-10T04:21:24.967Z,9.30
2023-04-10T04:26:27.634Z,14.10
2023-04-10T04:31:32.685Z,9.60
2023-04-10T04:36:35.553Z,10.10
2023-04-10T04:41:38.211Z,10.40
2023-04-10T04:46:43.190Z,9.90
2023-04-10T04:51:47.102Z,12.70
2023-04-10T04:56:49.756Z,11.80
2023-04-10T05:01:52.761Z,11.50
2023-04-10T05:06:55.841Z,9.80
2023-04-10T05:11:58.863Z,9.60
2023-04-10T05:17:03.556Z,8.70
2023-04-10T05:22:06.518Z,15.90
2023-04-10T05:27:09.247Z,9.70
2023-04-10T05:32:11.878Z,8.80
2023-04-10T05:37:14.622Z,8.10
2023-04-10T05:42:17.301Z,8.50
2023-04-10T05:47:20.045Z,8.70
2023-04-10T05:52:22.794Z,10.10
2023-04-10T05:57:25.585Z,12.60
2023-04-10T06:02:28.369Z,8.00
2023-04-10T06:07:33.267Z,9.10
2023-04-10T06:12:36.226Z,7.80
2023-04-10T06:17:43.820Z,9.40
2023-04-10T06:22:47.133Z,8.90
2023-04-10T06:27:49.843Z,9.00
2023-04-10T06:32:52.602Z,7.90
2023-04-10T06:37:55.332Z,8.50
2023-04-10T06:42:58.038Z,8.80
2023-04-10T06:48:00.952Z,9.40
2023-04-10T06:53:03.729Z,8.70
2023-04-10T06:58:06.397Z,6.40
2023-04-10T07:03:09.133Z,7.50
2023-04-10T07:08:11.844Z,6.70
2023-04-10T07:13:14.620Z,8.10
2023-04-10T07:18:17.293Z,6.40
2023-04-10T07:23:20.518Z,5.90
2023-04-10T07:28:23.194Z,6.50
2023-04-10T07:33:26.100Z,9.70
2023-04-10T07:38:28.963Z,6.90
2023-04-10T07:43:31.852Z,6.80
2023-04-10T07:48:34.610Z,7.40
2023-04-10T07:53:37.395Z,6.90
2023-04-10T07:58:40.154Z,7.70
2023-04-10T08:03:45.061Z,8.30
2023-04-10T08:08:48.284Z,8.50
2023-04-10T08:13:55.325Z,7.10
2023-04-10T08:18:59.297Z,6.50
2023-04-10T08:24:03.651Z,5.60
2023-04-10T08:29:06.361Z,5.10
2023-04-10T08:34:09.153Z,6.10
2023-04-10T08:39:11.838Z,6.40
2023-04-10T08:44:14.779Z,5.40
2023-04-10T08:49:24.408Z,5.60
2023-04-10T08:54:33.702Z,4.80
2023-04-10T08:59:36.567Z,7.00
2023-04-10T09:04:39.506Z,5.20
2023-04-10T09:09:42.683Z,6.70
2023-04-10T09:14:45.480Z,6.00
2023-04-10T09:19:50.098Z,6.50
2023-04-10T09:24:52.759Z,8.40
2023-04-10T09:29:55.417Z,7.90
2023-04-10T09:34:58.780Z,6.20
2023-04-10T09:40:01.901Z,7.90
2023-04-10T09:45:05.584Z,11.80
2023-04-10T09:50:08.568Z,6.90
2023-04-10T09:55:17.041Z,4.50
2023-04-10T10:00:20.748Z,4.80
2023-04-10T10:05:28.164Z,6.60
2023-04-10T10:10:31.196Z,5.80
2023-04-10T10:15:50.144Z,5.00
2023-04-10T10:20:53.894Z,5.90
2023-04-10T10:25:58.578Z,5.30
2023-04-10T10:31:03.371Z,4.40
2023-04-10T10:36:07.424Z,4.90
2023-04-10T10:41:20.049Z,5.20
2023-04-10T10:46:40.998Z,4.80
2023-04-10T10:51:50.931Z,4.10
2023-04-10T10:56:53.635Z,4.90
2023-04-10T11:02:16.276Z,5.90
2023-04-10T11:07:19.294Z,4.30
2023-04-10T11:12:24.213Z,5.60
2023-04-10T11:17:50.023Z,4.10
2023-04-10T11:28:34.456Z,7.70
2023-04-10T11:33:38.176Z,5.00
2023-04-10T11:38:40.871Z,5.90
2023-04-10T11:43:43.728Z,7.40
2023-04-10T11:48:46.797Z,9.50
2023-04-10T11:53:49.623Z,7.70
2023-04-10T11:58:55.588Z,4.50
2023-04-10T12:03:58.894Z,6.70
2023-04-10T12:09:12.964Z,4.60
2023-04-10T12:14:15.604Z,4.90
2023-04-10T12:19:18.541Z,5.10
2023-04-10T12:24:47.391Z,5.60
2023-04-10T12:29:52.416Z,5.50
2023-04-10T12:34:57.811Z,4.30
2023-04-10T12:40:07.577Z,5.60
2023-04-10T12:45:13.888Z,4.20
2023-04-10T12:50:18.545Z,5.10
2023-04-10T12:55:21.683Z,5.50
2023-04-10T13:00:25.543Z,5.90
2023-04-10T13:05:28.200Z,5.30
2023-04-10T13:10:30.971Z,4.30
2023-04-10T13:15:37.057Z,5.10
2023-04-10T13:20:41.239Z,5.60
2023-04-10T13:25:44.102Z,4.20
2023-04-10T13:30:46.826Z,4.30
2023-04-10T13:35:49.537Z,3.90
2023-04-10T13:40:53.357Z,4.10
2023-04-10T13:45:56.059Z,4.40
2023-04-10T13:50:58.688Z,6.40
2023-04-10T13:56:01.364Z,3.50
2023-04-10T14:01:04.287Z,8.20
2023-04-10T14:06:07.400Z,4.40
2023-04-10T14:11:10.063Z,6.60
2023-04-10T14:16:12.801Z,8.50
2023-04-10T14:21:15.576Z,4.60
2023-04-10T14:26:18.363Z,4.50
2023-04-10T14:31:21.160Z,6.40
2023-04-10T14:36:23.954Z,3.60
2023-04-10T14:41:26.785Z,5.40
2023-04-10T14:46:29.475Z,4.40
2023-04-10T14:51:33.594Z,4.40
2023-04-10T14:56:36.525Z,4.50
2023-04-10T15:01:39.252Z,3.10
2023-04-10T15:06:42.047Z,2.70
2023-04-10T15:11:44.733Z,3.30
2023-04-10T15:16:47.485Z,4.10
2023-04-10T15:21:50.317Z,7.40
2023-04-10T15:26:53.693Z,4.70
2023-04-10T15:32:00.522Z,5.60
2023-04-10T15:37:03.202Z,4.40
2023-04-10T15:42:07.506Z,3.20
2023-04-10T15:47:10.232Z,3.20
2023-04-10T15:52:12.947Z,3.70
2023-04-10T15:57:15.874Z,3.90
2023-04-10T16:02:18.645Z,4.20
2023-04-10T16:07:21.496Z,5.00
2023-04-10T16:12:24.154Z,4.40
2023-04-10T16:17:26.841Z,6.00
2023-04-10T16:22:29.563Z,4.80
2023-04-10T16:27:32.191Z,6.10
2023-04-10T16:32:35.004Z,5.50
2023-04-10T16:37:37.821Z,6.50
2023-04-10T16:42:42.684Z,6.90
2023-04-10T16:47:46.183Z,7.00
2023-04-10T16:52:48.976Z,5.50
2023-04-10T16:57:51.775Z,7.40
2023-04-10T17:02:54.479Z,7.90
2023-04-10T17:07:57.155Z,8.20
2023-04-10T17:12:59.876Z,7.90
2023-04-10T17:18:02.573Z,9.50
2023-04-10T17:23:05.342Z,21.60
2023-04-10T17:28:08.200Z,32.00
2023-04-10T17:33:10.902Z,25.90
2023-04-10T17:38:13.600Z,21.60
2023-04-10T17:43:16.281Z,16.20
2023-04-10T17:48:19.047Z,18.40
2023-04-10T17:53:21.752Z,17.40
2023-04-10T17:58:24.417Z,16.80
2023-04-10T18:03:27.251Z,15.80
2023-04-10T18:08:30.000Z,29.10
2023-04-10T18:13:34.320Z,29.40
2023-04-10T18:18:37.210Z,18.00
2023-04-10T18:23:40.270Z,15.90
2023-04-10T18:28:43.426Z,14.40
2023-04-10T18:33:48.600Z,9.00
2023-04-10T18:38:59.155Z,10.70
2023-04-10T18:44:05.584Z,11.30
2023-04-10T18:49:09.080Z,19.90
2023-04-10T18:54:11.751Z,33.50
2023-04-10T18:59:14.446Z,13.80
2023-04-10T19:04:17.236Z,13.80
2023-04-10T19:09:20.012Z,10.20
2023-04-10T19:14:22.721Z,10.50
2023-04-10T19:19:25.409Z,7.10
2023-04-10T19:24:28.177Z,8.50
2023-04-10T19:29:31.245Z,11.80
2023-04-10T19:34:33.918Z,11.10
2023-04-10T19:39:36.594Z,11.20
2023-04-10T19:44:39.517Z,9.40
2023-04-10T19:49:42.218Z,9.70
2023-04-10T19:54:44.956Z,12.70
2023-04-10T19:59:47.648Z,12.40
2023-04-10T20:04:50.354Z,12.70
2023-04-10T20:09:53.042Z,14.20
2023-04-10T20:14:55.949Z,12.10
2023-04-10T20:19:58.658Z,13.60
2023-04-10T20:25:01.298Z,17.50
2023-04-10T20:30:04.751Z,15.60
2023-04-10T20:35:07.942Z,15.20
2023-04-10T20:40:10.862Z,12.60
2023-04-10T20:45:13.641Z,12.40
2023-04-10T20:50:16.445Z,13.20
2023-04-10T20:55:19.115Z,20.80
2023-04-10T21:00:21.904Z,21.60
2023-04-10T21:05:24.677Z,14.60
2023-04-10T21:10:27.326Z,20.40
2023-04-10T21:15:30.213Z,14.80
2023-04-10T21:20:34.034Z,16.10
2023-04-10T21:25:38.615Z,11.50
2023-04-10T21:30:41.268Z,12.80
2023-04-10T21:35:45.227Z,10.10
2023-04-10T21:40:52.171Z,11.40
2023-04-10T21:45:54.988Z,13.40
2023-04-10T21:50:57.711Z,13.40
2023-04-10T21:56:00.447Z,10.40
2023-04-10T22:01:03.332Z,12.60
2023-04-10T22:06:06.263Z,10.10
2023-04-10T22:11:09.014Z,11.10
2023-04-10T22:16:11.736Z,11.00
2023-04-10T22:21:14.443Z,11.30
2023-04-10T22:26:19.482Z,11.20
2023-04-10T22:31:22.242Z,12.70
2023-04-10T22:36:31.415Z,10.80
2023-04-10T22:41:34.225Z,14.20
2023-04-10T22:46:37.639Z,13.70
2023-04-10T22:51:41.785Z,14.90
2023-04-10T22:56:44.505Z,12.70
2023-04-10T23:01:47.197Z,15.20
2023-04-10T23:06:49.865Z,10.60
2023-04-10T23:11:52.539Z,11.20
2023-04-10T23:16:55.287Z,10.50
2023-04-10T23:21:57.958Z,8.80
2023-04-10T23:27:00.676Z,10.30
2023-04-10T23:32:03.469Z,7.70
2023-04-10T23:37:06.277Z,10.50
2023-04-10T23:42:08.981Z,9.80
2023-04-10T23:47:11.682Z,9.10
2023-04-10T23:52:14.342Z,12.30
2023-04-10T23:57:16.979Z,13.10
